createdAt,value
2018-12-14T00:00:15.933Z,0.00
2018-12-14T00:01:15.914Z,0.00
2018-12-14T00:02:15.921Z,0.00
2018-12-14T00:03:15.911Z,0.00
2018-12-14T00:04:15.880Z,0.00
2018-12-14T00:05:15.890Z,0.00
2018-12-14T00:06:15.860Z,0.00
2018-12-14T00:07:15.851Z,0.00
2018-12-14T00:08:15.855Z,0.00
2018-12-14T00:09:15.826Z,0.00
2018-12-14T00:10:15.835Z,0.00
2018-12-14T00:11:15.811Z,0.00
2018-12-14T00:12:15.799Z,0.00
2018-12-14T00:13:15.804Z,0.00
2018-12-14T00:14:15.776Z,0.00
2018-12-14T00:15:15.760Z,0.00
2018-12-14T00:16:15.752Z,0.00
2018-12-14T00:17:15.759Z,0.00
2018-12-14T00:18:15.762Z,0.00
2018-12-14T00:19:15.723Z,0.00
2018-12-14T00:20:15.706Z,0.00
2018-12-14T00:21:15.717Z,0.00
2018-12-14T00:22:15.684Z,0.00
2018-12-14T00:23:15.708Z,0.00
2018-12-14T00:24:15.661Z,0.00
2018-12-14T00:25:15.653Z,0.00
2018-12-14T00:26:15.640Z,0.00
2018-12-14T00:27:15.630Z,0.00
2018-12-14T00:28:15.640Z,0.00
2018-12-14T00:29:15.606Z,0.00
2018-12-14T00:30:15.596Z,0.00
2018-12-14T00:31:15.584Z,0.00
2018-12-14T00:32:15.578Z,0.00
2018-12-14T00:33:15.600Z,0.00
2018-12-14T00:34:15.593Z,0.00
2018-12-14T00:35:15.544Z,0.00
2018-12-14T00:36:15.539Z,0.00
2018-12-14T00:37:15.519Z,0.00
2018-12-14T00:38:15.512Z,0.00
2018-12-14T00:39:15.529Z,0.00
2018-12-14T00:40:15.486Z,0.00
2018-12-14T00:41:15.476Z,0.00
2018-12-14T00:42:15.466Z,0.00
2018-12-14T00:43:15.457Z,0.00
2018-12-14T00:44:15.464Z,0.00
2018-12-14T00:45:15.440Z,0.00
2018-12-14T00:46:15.424Z,0.00
2018-12-14T00:47:15.414Z,0.00
2018-12-14T00:48:15.402Z,0.00
2018-12-14T00:49:15.407Z,0.00
2018-12-14T00:50:15.376Z,0.00
2018-12-14T00:51:15.366Z,0.00
2018-12-14T00:52:15.360Z,0.00
2018-12-14T00:53:15.363Z,0.00
2018-12-14T00:54:15.353Z,0.00
2018-12-14T00:55:15.322Z,0.00
2018-12-14T00:56:15.315Z,0.00
2018-12-14T00:57:15.303Z,0.00
2018-12-14T00:58:15.293Z,0.00
2018-12-14T00:59:15.304Z,0.00
2018-12-14T01:00:15.269Z,0.00
2018-12-14T01:01:15.256Z,0.00
2018-12-14T01:02:15.245Z,0.00
2018-12-14T01:03:15.235Z,0.00
2018-12-14T01:04:15.247Z,0.00
2018-12-14T01:05:15.215Z,0.00
2018-12-14T01:06:15.205Z,0.00
2018-12-14T01:07:15.191Z,0.00
2018-12-14T01:08:15.181Z,0.00
2018-12-14T01:09:15.189Z,0.00
2018-12-14T01:10:15.178Z,0.00
2018-12-14T01:11:15.175Z,0.00
2018-12-14T01:12:15.136Z,0.00
2018-12-14T01:13:15.132Z,0.00
2018-12-14T01:14:15.153Z,0.00
2018-12-14T01:15:15.113Z,0.00
2018-12-14T01:16:15.093Z,0.00
2018-12-14T01:17:15.081Z,0.00
2018-12-14T01:18:15.072Z,0.00
2018-12-14T01:19:15.086Z,0.00
2018-12-14T01:20:15.050Z,0.00
2018-12-14T01:21:15.039Z,0.00
2018-12-14T01:22:15.031Z,0.00
2018-12-14T01:23:15.019Z,0.00
2018-12-14T01:24:15.026Z,0.00
2018-12-14T01:25:14.994Z,0.00
2018-12-14T01:26:14.989Z,0.00
2018-12-14T01:27:14.978Z,0.00
2018-12-14T01:28:14.965Z,0.00
2018-12-14T01:29:14.977Z,0.00
2018-12-14T01:30:14.943Z,0.00
2018-12-14T01:31:14.930Z,0.00
2018-12-14T01:32:14.921Z,0.00
2018-12-14T01:33:14.907Z,0.00
2018-12-14T01:34:14.917Z,0.00
2018-12-14T01:35:14.887Z,0.00
2018-12-14T01:36:14.876Z,0.00
2018-12-14T01:37:14.864Z,0.00
2018-12-14T01:38:14.909Z,0.00
2018-12-14T01:39:14.865Z,0.00
2018-12-14T01:40:14.835Z,0.00
2018-12-14T01:41:14.822Z,0.00
2018-12-14T01:42:14.810Z,0.00
2018-12-14T01:43:14.801Z,0.00
2018-12-14T01:44:14.818Z,0.00
2018-12-14T01:45:14.776Z,0.00
2018-12-14T01:46:14.768Z,0.00
2018-12-14T01:47:14.759Z,0.00
2018-12-14T01:48:14.746Z,0.00
2018-12-14T01:49:14.755Z,0.00
2018-12-14T01:50:14.725Z,0.00
2018-12-14T01:51:14.712Z,0.00
2018-12-14T01:52:14.706Z,0.00
2018-12-14T01:53:14.690Z,0.00
2018-12-14T01:54:14.699Z,0.00
2018-12-14T01:55:14.667Z,0.00
2018-12-14T01:56:14.660Z,0.00
2018-12-14T01:57:14.652Z,0.00
2018-12-14T01:58:14.635Z,0.00
2018-12-14T01:59:14.645Z,0.00
2018-12-14T02:00:14.614Z,0.00
2018-12-14T02:01:14.603Z,0.00
2018-12-14T02:02:14.592Z,0.00
2018-12-14T02:03:14.581Z,0.00
2018-12-14T02:04:14.592Z,0.00
2018-12-14T02:05:14.560Z,0.00
2018-12-14T02:06:14.548Z,0.00
2018-12-14T02:07:14.537Z,0.00
2018-12-14T02:08:14.527Z,0.00
2018-12-14T02:09:14.537Z,0.00
2018-12-14T02:10:14.507Z,0.00
2018-12-14T02:11:14.493Z,0.00
2018-12-14T02:12:14.486Z,0.00
2018-12-14T02:13:14.473Z,0.00
2018-12-14T02:14:14.492Z,0.00
2018-12-14T02:15:14.450Z,0.00
2018-12-14T02:16:14.438Z,0.00
2018-12-14T02:17:14.451Z,0.00
2018-12-14T02:18:14.417Z,0.00
2018-12-14T02:19:14.425Z,0.00
2018-12-14T02:20:14.463Z,0.00
2018-12-14T02:21:14.384Z,0.00
2018-12-14T02:22:14.380Z,0.00
2018-12-14T02:23:14.368Z,0.00
2018-12-14T02:24:14.393Z,0.00
2018-12-14T02:25:14.340Z,0.00
2018-12-14T02:26:14.330Z,0.00
2018-12-14T02:27:14.318Z,0.00
2018-12-14T02:28:14.307Z,0.00
2018-12-14T02:29:14.297Z,0.00
2018-12-14T02:30:14.305Z,0.00
2018-12-14T02:31:14.281Z,0.00
2018-12-14T02:32:14.264Z,0.00
2018-12-14T02:33:14.254Z,0.00
2018-12-14T02:34:14.242Z,0.00
2018-12-14T02:35:14.251Z,0.00
2018-12-14T02:36:14.219Z,0.00
2018-12-14T02:37:14.229Z,0.00
2018-12-14T02:38:14.198Z,0.00
2018-12-14T02:39:14.187Z,0.00
2018-12-14T02:40:14.201Z,0.00
2018-12-14T02:41:14.168Z,0.00
2018-12-14T02:42:19.271Z,0.00
2018-12-14T02:43:14.180Z,0.00
2018-12-14T02:44:14.134Z,0.00
2018-12-14T02:45:14.141Z,0.00
2018-12-14T02:46:14.156Z,0.00
2018-12-14T02:47:14.100Z,0.00
2018-12-14T02:48:14.090Z,0.00
2018-12-14T02:49:14.085Z,0.00
2018-12-14T02:50:14.091Z,0.00
2018-12-14T02:51:14.086Z,0.00
2018-12-14T02:52:14.045Z,0.00
2018-12-14T02:53:14.037Z,0.00
2018-12-14T02:54:14.027Z,0.00
2018-12-14T02:55:14.038Z,0.00
2018-12-14T02:56:14.007Z,0.00
2018-12-14T02:57:13.990Z,0.00
2018-12-14T02:58:13.979Z,0.00
2018-12-14T02:59:13.970Z,0.00
2018-12-14T03:00:13.977Z,0.00
2018-12-14T03:01:13.978Z,0.00
2018-12-14T03:02:13.937Z,0.00
2018-12-14T03:03:13.926Z,0.00
2018-12-14T03:04:13.916Z,0.00
2018-12-14T03:05:13.934Z,0.00
2018-12-14T03:06:13.899Z,0.00
2018-12-14T03:07:13.887Z,0.00
2018-12-14T03:08:13.874Z,0.00
2018-12-14T03:09:13.860Z,0.00
2018-12-14T03:10:13.872Z,0.00
2018-12-14T03:11:13.838Z,0.00
2018-12-14T03:12:13.827Z,0.00
2018-12-14T03:13:13.817Z,0.00
2018-12-14T03:14:13.811Z,0.00
2018-12-14T03:15:13.819Z,0.00
2018-12-14T03:16:13.802Z,0.00
2018-12-14T03:17:13.774Z,0.00
2018-12-14T03:18:13.772Z,0.00
2018-12-14T03:19:13.757Z,0.00
2018-12-14T03:20:13.774Z,0.00
2018-12-14T03:21:13.730Z,0.00
2018-12-14T03:22:13.720Z,0.00
2018-12-14T03:23:13.708Z,0.00
2018-12-14T03:24:13.698Z,0.00
2018-12-14T03:25:13.708Z,0.00
2018-12-14T03:26:13.676Z,0.00
2018-12-14T03:27:13.668Z,0.00
2018-12-14T03:28:13.661Z,0.00
2018-12-14T03:29:13.647Z,0.00
2018-12-14T03:30:13.656Z,0.00
2018-12-14T03:31:13.625Z,0.00
2018-12-14T03:32:13.610Z,0.00
2018-12-14T03:33:13.601Z,0.00
2018-12-14T03:34:13.589Z,0.00
2018-12-14T03:35:13.603Z,0.00
2018-12-14T03:36:13.567Z,0.00
2018-12-14T03:37:13.555Z,0.00
2018-12-14T03:38:13.544Z,0.00
2018-12-14T03:39:13.537Z,0.00
2018-12-14T03:40:13.543Z,0.00
2018-12-14T03:41:13.515Z,0.00
2018-12-14T03:42:13.512Z,0.00
2018-12-14T03:43:13.491Z,0.00
2018-12-14T03:44:13.488Z,0.00
2018-12-14T03:45:13.495Z,0.00
2018-12-14T03:46:13.458Z,0.00
2018-12-14T03:47:13.455Z,0.00
2018-12-14T03:48:13.435Z,0.00
2018-12-14T03:49:13.424Z,0.00
2018-12-14T03:50:13.437Z,0.00
2018-12-14T03:51:13.406Z,0.00
2018-12-14T03:52:13.392Z,0.00
2018-12-14T03:53:13.381Z,0.00
2018-12-14T03:54:13.370Z,0.00
2018-12-14T03:55:13.381Z,0.00
2018-12-14T03:56:13.351Z,0.00
2018-12-14T03:57:13.338Z,0.00
2018-12-14T03:58:13.326Z,0.00
2018-12-14T03:59:13.315Z,0.00
2018-12-14T04:00:13.328Z,0.00
2018-12-14T04:01:13.295Z,0.00
2018-12-14T04:02:13.302Z,0.00
2018-12-14T04:03:13.275Z,0.00
2018-12-14T04:04:13.264Z,0.00
2018-12-14T04:05:13.270Z,0.00
2018-12-14T04:06:13.245Z,0.00
2018-12-14T04:07:13.231Z,0.00
2018-12-14T04:08:13.218Z,0.00
2018-12-14T04:09:13.206Z,0.00
2018-12-14T04:10:13.223Z,0.00
2018-12-14T04:11:13.185Z,0.00
2018-12-14T04:12:13.261Z,0.00
2018-12-14T04:13:13.163Z,0.00
2018-12-14T04:14:13.151Z,0.00
2018-12-14T04:15:13.141Z,0.00
2018-12-14T04:16:13.177Z,0.00
2018-12-14T04:17:13.123Z,0.00
2018-12-14T04:18:13.107Z,0.00
2018-12-14T04:19:13.101Z,0.00
2018-12-14T04:20:13.092Z,0.00
2018-12-14T04:21:13.097Z,0.00
2018-12-14T04:22:13.068Z,0.00
2018-12-14T04:23:13.053Z,0.00
2018-12-14T04:24:13.062Z,0.00
2018-12-14T04:25:13.031Z,0.00
2018-12-14T04:26:13.042Z,0.00
2018-12-14T04:27:13.011Z,0.00
2018-12-14T04:28:13.003Z,0.00
2018-12-14T04:29:13.016Z,0.00
2018-12-14T04:30:12.978Z,0.00
2018-12-14T04:31:12.986Z,0.00
2018-12-14T04:32:12.958Z,0.00
2018-12-14T04:33:12.946Z,0.00
2018-12-14T04:34:12.934Z,0.00
2018-12-14T04:35:12.925Z,0.00
2018-12-14T04:36:12.962Z,0.00
2018-12-14T04:37:12.902Z,0.00
2018-12-14T04:38:12.890Z,0.00
2018-12-14T04:39:12.878Z,0.00
2018-12-14T04:40:12.876Z,0.00
2018-12-14T04:41:12.882Z,0.00
2018-12-14T04:42:12.849Z,0.00
2018-12-14T04:43:12.835Z,0.00
2018-12-14T04:44:12.832Z,0.00
2018-12-14T04:45:12.826Z,0.00
2018-12-14T04:46:12.825Z,0.00
2018-12-14T04:47:12.798Z,0.00
2018-12-14T04:48:12.784Z,0.00
2018-12-14T04:49:12.778Z,0.00
2018-12-14T04:50:12.759Z,0.00
2018-12-14T04:51:12.787Z,0.00
2018-12-14T04:52:12.736Z,0.00
2018-12-14T04:53:12.730Z,0.00
2018-12-14T04:54:12.714Z,0.00
2018-12-14T04:55:12.703Z,0.00
2018-12-14T04:56:13.521Z,0.00
2018-12-14T04:57:12.703Z,0.00
2018-12-14T04:58:12.675Z,0.00
2018-12-14T04:59:12.661Z,0.00
2018-12-14T05:00:12.651Z,0.00
2018-12-14T05:01:12.639Z,0.00
2018-12-14T05:02:12.648Z,0.00
2018-12-14T05:03:12.619Z,0.00
2018-12-14T05:04:12.606Z,0.00
2018-12-14T05:05:12.599Z,0.00
2018-12-14T05:06:12.598Z,0.00
2018-12-14T05:07:12.594Z,0.00
2018-12-14T05:08:12.564Z,0.00
2018-12-14T05:09:12.551Z,0.00
2018-12-14T05:10:12.542Z,0.00
2018-12-14T05:11:12.530Z,0.00
2018-12-14T05:12:12.549Z,0.00
2018-12-14T05:13:12.508Z,0.00
2018-12-14T05:14:12.499Z,0.00
2018-12-14T05:15:12.488Z,0.00
2018-12-14T05:16:12.474Z,0.00
2018-12-14T05:17:12.463Z,0.00
2018-12-14T05:18:12.474Z,0.00
2018-12-14T05:19:12.441Z,0.00
2018-12-14T05:20:12.431Z,0.00
2018-12-14T05:21:12.419Z,0.00
2018-12-14T05:22:12.411Z,0.00
2018-12-14T05:23:12.421Z,0.00
2018-12-14T05:24:12.386Z,0.00
2018-12-14T05:25:21.197Z,0.00
2018-12-14T05:26:12.383Z,0.00
2018-12-14T05:27:12.354Z,0.00
2018-12-14T05:28:12.365Z,0.00
2018-12-14T05:29:12.342Z,0.00
2018-12-14T05:30:12.322Z,0.00
2018-12-14T05:31:12.310Z,0.00
2018-12-14T05:32:12.303Z,0.00
2018-12-14T05:33:12.331Z,0.00
2018-12-14T05:34:13.603Z,0.00
2018-12-14T05:35:12.269Z,0.00
2018-12-14T05:36:12.256Z,0.00
2018-12-14T05:37:12.244Z,0.00
2018-12-14T05:38:12.256Z,0.00
2018-12-14T05:39:12.229Z,0.00
2018-12-14T05:40:12.212Z,0.00
2018-12-14T05:41:12.202Z,0.00
2018-12-14T05:42:12.190Z,0.00
2018-12-14T05:43:12.197Z,0.00
2018-12-14T05:44:12.170Z,0.00
2018-12-14T05:45:12.164Z,0.00
2018-12-14T05:46:12.153Z,0.00
2018-12-14T05:47:12.135Z,0.00
2018-12-14T05:48:12.144Z,0.00
2018-12-14T05:49:12.116Z,0.00
2018-12-14T05:50:12.105Z,0.00
2018-12-14T05:51:12.094Z,0.00
2018-12-14T05:52:12.081Z,0.00
2018-12-14T05:53:12.105Z,0.00
2018-12-14T05:54:12.060Z,0.00
2018-12-14T05:55:12.048Z,0.00
2018-12-14T05:56:12.037Z,0.00
2018-12-14T05:57:12.030Z,0.00
2018-12-14T05:58:12.016Z,0.00
2018-12-14T05:59:12.024Z,0.00
2018-12-14T06:00:22.195Z,0.00
2018-12-14T06:01:11.981Z,0.00
2018-12-14T06:02:11.976Z,0.00
2018-12-14T06:03:11.963Z,0.00
2018-12-14T06:04:11.979Z,0.00
2018-12-14T06:05:11.938Z,0.00
2018-12-14T06:06:11.927Z,0.00
2018-12-14T06:07:11.920Z,0.00
2018-12-14T06:08:11.906Z,0.00
2018-12-14T06:09:11.915Z,0.00
2018-12-14T06:10:11.887Z,0.00
2018-12-14T06:11:11.873Z,0.00
2018-12-14T06:12:11.862Z,0.00
2018-12-14T06:13:11.853Z,0.00
2018-12-14T06:14:11.873Z,0.00
2018-12-14T06:15:11.831Z,0.00
2018-12-14T06:16:11.821Z,0.00
2018-12-14T06:17:11.807Z,0.00
2018-12-14T06:18:20.075Z,0.00
2018-12-14T06:19:11.805Z,0.00
2018-12-14T06:20:21.189Z,0.00
2018-12-14T06:21:11.764Z,0.00
2018-12-14T06:22:11.753Z,0.00
2018-12-14T06:23:11.741Z,0.00
2018-12-14T06:24:11.769Z,0.00
2018-12-14T06:25:11.722Z,0.00
2018-12-14T06:26:11.713Z,0.00
2018-12-14T06:27:11.698Z,0.00
2018-12-14T06:28:11.709Z,0.00
2018-12-14T06:29:11.677Z,0.00
2018-12-14T06:30:11.698Z,0.00
2018-12-14T06:31:11.655Z,0.00
2018-12-14T06:32:11.649Z,0.00
2018-12-14T06:33:11.637Z,0.00
2018-12-14T06:34:11.623Z,0.00
2018-12-14T06:35:11.631Z,0.00
2018-12-14T06:36:11.603Z,0.00
2018-12-14T06:37:11.596Z,0.00
2018-12-14T06:38:11.584Z,0.00
2018-12-14T06:39:11.567Z,0.00
2018-12-14T06:40:11.576Z,0.00
2018-12-14T06:41:11.550Z,0.00
2018-12-14T06:42:11.540Z,0.00
2018-12-14T06:43:15.424Z,0.00
2018-12-14T06:44:11.513Z,0.00
2018-12-14T06:45:11.523Z,0.00
2018-12-14T06:46:11.493Z,0.00
2018-12-14T06:47:11.486Z,0.00
2018-12-14T06:48:11.480Z,0.00
2018-12-14T06:49:11.461Z,0.00
2018-12-14T06:50:11.482Z,0.00
2018-12-14T06:51:11.452Z,0.00
2018-12-14T06:52:11.425Z,0.00
2018-12-14T06:53:11.418Z,0.00
2018-12-14T06:54:11.405Z,0.00
2018-12-14T06:55:11.440Z,0.00
2018-12-14T06:56:11.402Z,0.00
2018-12-14T06:57:11.376Z,0.00
2018-12-14T06:58:11.360Z,0.00
2018-12-14T06:59:11.358Z,0.00
2018-12-14T07:00:11.342Z,0.00
2018-12-14T07:01:11.350Z,4.00
2018-12-14T07:02:11.316Z,4.00
2018-12-14T07:03:11.318Z,0.00
2018-12-14T07:04:11.309Z,0.00
2018-12-14T07:05:11.284Z,0.00
2018-12-14T07:06:11.296Z,4.00
2018-12-14T07:07:11.270Z,4.00
2018-12-14T07:08:11.252Z,0.00
2018-12-14T07:09:11.240Z,4.00
2018-12-14T07:10:11.232Z,4.00
2018-12-14T07:11:11.241Z,4.00
2018-12-14T07:12:11.209Z,4.00
2018-12-14T07:13:11.197Z,4.00
2018-12-14T07:14:11.187Z,8.00
2018-12-14T07:15:11.183Z,4.00
2018-12-14T07:16:11.184Z,8.00
2018-12-14T07:17:11.159Z,8.00
2018-12-14T07:18:11.143Z,8.00
2018-12-14T07:19:11.133Z,12.00
2018-12-14T07:20:11.128Z,8.00
2018-12-14T07:21:11.159Z,12.00
2018-12-14T07:22:11.099Z,12.00
2018-12-14T07:23:11.095Z,12.00
2018-12-14T07:24:11.081Z,16.00
2018-12-14T07:25:11.068Z,12.00
2018-12-14T07:26:11.095Z,16.00
2018-12-14T07:27:11.047Z,16.00
2018-12-14T07:28:11.042Z,20.00
2018-12-14T07:29:11.024Z,20.00
2018-12-14T07:30:11.012Z,20.00
2018-12-14T07:31:11.014Z,24.00
2018-12-14T07:32:11.012Z,24.00
2018-12-14T07:33:10.980Z,24.00
2018-12-14T07:34:10.969Z,28.00
2018-12-14T07:35:10.962Z,28.00
2018-12-14T07:36:11.005Z,28.00
2018-12-14T07:37:10.965Z,28.00
2018-12-14T07:38:10.926Z,36.00
2018-12-14T07:39:10.918Z,32.00
2018-12-14T07:40:10.917Z,32.00
2018-12-14T07:41:10.894Z,36.00
2018-12-14T07:42:10.904Z,36.00
2018-12-14T07:43:10.873Z,44.00
2018-12-14T07:44:10.860Z,40.00
2018-12-14T07:45:10.864Z,44.00
2018-12-14T07:46:10.887Z,44.00
2018-12-14T07:47:11.832Z,44.00
2018-12-14T07:48:10.821Z,44.00
2018-12-14T07:49:10.805Z,52.00
2018-12-14T07:50:10.799Z,52.00
2018-12-14T07:51:10.785Z,56.00
2018-12-14T07:52:10.808Z,56.00
2018-12-14T07:53:10.772Z,60.00
2018-12-14T07:54:10.753Z,60.00
2018-12-14T07:55:10.742Z,60.00
2018-12-14T07:56:10.732Z,60.00
2018-12-14T07:57:10.744Z,64.00
2018-12-14T07:58:10.709Z,64.00
2018-12-14T07:59:10.699Z,72.00
2018-12-14T08:00:10.686Z,76.00
2018-12-14T08:01:10.694Z,76.00
2018-12-14T08:02:10.685Z,76.00
2018-12-14T08:03:10.655Z,76.00
2018-12-14T08:04:10.649Z,80.00
2018-12-14T08:05:10.634Z,88.00
2018-12-14T08:06:10.629Z,92.00
2018-12-14T08:07:10.635Z,92.00
2018-12-14T08:08:10.602Z,88.00
2018-12-14T08:09:10.591Z,88.00
2018-12-14T08:10:10.579Z,92.00
2018-12-14T08:11:10.569Z,92.00
2018-12-14T08:12:10.580Z,96.00
2018-12-14T08:13:10.547Z,104.00
2018-12-14T08:14:10.548Z,112.00
2018-12-14T08:15:11.502Z,112.00
2018-12-14T08:16:10.514Z,112.00
2018-12-14T08:17:10.524Z,112.00
2018-12-14T08:18:10.575Z,116.00
2018-12-14T08:19:10.482Z,120.00
2018-12-14T08:20:16.945Z,120.00
2018-12-14T08:21:10.462Z,128.00
2018-12-14T08:22:10.473Z,128.00
2018-12-14T08:23:10.438Z,132.00
2018-12-14T08:24:10.429Z,132.00
2018-12-14T08:25:10.418Z,136.00
2018-12-14T08:26:10.408Z,140.00
2018-12-14T08:27:10.429Z,144.00
2018-12-14T08:28:10.387Z,152.00
2018-12-14T08:29:10.373Z,156.00
2018-12-14T08:30:10.363Z,156.00
2018-12-14T08:31:10.353Z,168.00
2018-12-14T08:32:10.348Z,172.00
2018-12-14T08:33:10.349Z,176.00
2018-12-14T08:34:10.340Z,180.00
2018-12-14T08:35:10.311Z,188.00
2018-12-14T08:36:10.302Z,184.00
2018-12-14T08:37:10.287Z,184.00
2018-12-14T08:38:10.297Z,184.00
2018-12-14T08:39:10.270Z,196.00
2018-12-14T08:40:10.259Z,200.00
2018-12-14T08:41:10.258Z,212.00
2018-12-14T08:42:10.233Z,216.00
2018-12-14T08:43:10.244Z,216.00
2018-12-14T08:44:10.214Z,212.00
2018-12-14T08:45:10.698Z,212.00
2018-12-14T08:46:10.193Z,216.00
2018-12-14T08:47:10.177Z,224.00
2018-12-14T08:48:10.213Z,224.00
2018-12-14T08:49:10.156Z,232.00
2018-12-14T08:50:10.145Z,236.00
2018-12-14T08:51:10.142Z,232.00
2018-12-14T08:52:10.125Z,236.00
2018-12-14T08:53:10.135Z,244.00
2018-12-14T08:54:10.112Z,260.00
2018-12-14T08:55:10.093Z,276.00
2018-12-14T08:56:10.082Z,280.00
2018-12-14T08:57:10.068Z,276.00
2018-12-14T08:58:10.080Z,276.00
2018-12-14T08:59:10.048Z,272.00
2018-12-14T09:00:10.042Z,284.00
2018-12-14T09:01:10.031Z,292.00
2018-12-14T09:02:10.019Z,296.00
2018-12-14T09:03:10.025Z,308.00
2018-12-14T09:04:09.997Z,320.00
2018-12-14T09:05:09.992Z,320.00
2018-12-14T09:06:09.972Z,320.00
2018-12-14T09:07:09.965Z,316.00
2018-12-14T09:08:09.969Z,332.00
2018-12-14T09:09:09.939Z,356.00
2018-12-14T09:10:09.929Z,364.00
2018-12-14T09:11:09.923Z,368.00
2018-12-14T09:12:09.906Z,368.00
2018-12-14T09:13:09.922Z,372.00
2018-12-14T09:14:09.890Z,372.00
2018-12-14T09:15:09.874Z,388.00
2018-12-14T09:16:09.865Z,412.00
2018-12-14T09:17:09.857Z,416.00
2018-12-14T09:18:09.882Z,428.00
2018-12-14T09:19:09.831Z,440.00
2018-12-14T09:20:09.827Z,432.00
2018-12-14T09:21:09.810Z,428.00
2018-12-14T09:22:09.802Z,424.00
2018-12-14T09:23:09.809Z,428.00
2018-12-14T09:24:09.780Z,440.00
2018-12-14T09:25:09.764Z,460.00
2018-12-14T09:26:09.754Z,468.00
2018-12-14T09:27:09.750Z,472.00
2018-12-14T09:28:09.790Z,472.00
2018-12-14T09:29:09.722Z,460.00
2018-12-14T09:30:09.712Z,460.00
2018-12-14T09:31:09.703Z,488.00
2018-12-14T09:32:09.693Z,512.00
2018-12-14T09:33:09.705Z,516.00
2018-12-14T09:34:09.673Z,508.00
2018-12-14T09:35:09.656Z,516.00
2018-12-14T09:36:09.646Z,508.00
2018-12-14T09:37:09.635Z,488.00
2018-12-14T09:38:09.646Z,488.00
2018-12-14T09:39:09.620Z,488.00
2018-12-14T09:40:09.602Z,484.00
2018-12-14T09:41:16.012Z,488.00
2018-12-14T09:42:10.581Z,508.00
2018-12-14T09:43:09.624Z,512.00
2018-12-14T09:44:09.568Z,524.00
2018-12-14T09:45:09.548Z,528.00
2018-12-14T09:46:09.540Z,536.00
2018-12-14T09:47:09.530Z,536.00
2018-12-14T09:48:09.538Z,540.00
2018-12-14T09:49:09.507Z,528.00
2018-12-14T09:50:09.493Z,520.00
2018-12-14T09:51:12.443Z,508.00
2018-12-14T09:52:09.473Z,496.00
2018-12-14T09:53:09.481Z,488.00
2018-12-14T09:54:09.448Z,488.00
2018-12-14T09:55:09.438Z,480.00
2018-12-14T09:56:09.430Z,488.00
2018-12-14T09:57:09.417Z,500.00
2018-12-14T09:58:09.425Z,520.00
2018-12-14T09:59:09.394Z,544.00
2018-12-14T10:00:09.386Z,556.00
2018-12-14T10:01:09.373Z,560.00
2018-12-14T10:02:09.364Z,556.00
2018-12-14T10:03:09.352Z,544.00
2018-12-14T10:04:09.406Z,552.00
2018-12-14T10:05:09.328Z,596.00
2018-12-14T10:06:15.524Z,656.00
2018-12-14T10:07:09.311Z,712.00
2018-12-14T10:08:09.299Z,728.00
2018-12-14T10:09:09.312Z,708.00
2018-12-14T10:10:09.274Z,704.00
2018-12-14T10:11:09.268Z,704.00
2018-12-14T10:12:09.251Z,692.00
2018-12-14T10:13:09.249Z,680.00
2018-12-14T10:14:09.250Z,672.00
2018-12-14T10:15:09.222Z,660.00
2018-12-14T10:16:09.207Z,636.00
2018-12-14T10:17:09.198Z,612.00
2018-12-14T10:18:09.187Z,600.00
2018-12-14T10:19:09.195Z,596.00
2018-12-14T10:20:09.165Z,612.00
2018-12-14T10:21:09.154Z,612.00
2018-12-14T10:22:09.143Z,608.00
2018-12-14T10:23:09.131Z,608.00
2018-12-14T10:24:09.141Z,620.00
2018-12-14T10:25:09.126Z,624.00
2018-12-14T10:26:09.101Z,656.00
2018-12-14T10:27:09.088Z,708.00
2018-12-14T10:28:09.077Z,740.00
2018-12-14T10:29:09.086Z,776.00
2018-12-14T10:30:09.087Z,828.00
2018-12-14T10:31:09.046Z,868.00
2018-12-14T10:32:09.034Z,860.00
2018-12-14T10:33:09.025Z,852.00
2018-12-14T10:34:09.032Z,840.00
2018-12-14T10:35:09.000Z,816.00
2018-12-14T10:36:08.998Z,804.00
2018-12-14T10:37:08.985Z,828.00
2018-12-14T10:38:08.968Z,856.00
2018-12-14T10:39:08.980Z,868.00
2018-12-14T10:40:08.948Z,868.00
2018-12-14T10:41:09.009Z,856.00
2018-12-14T10:42:08.924Z,840.00
2018-12-14T10:43:08.915Z,856.00
2018-12-14T10:44:08.924Z,884.00
2018-12-14T10:45:08.897Z,892.00
2018-12-14T10:46:08.884Z,892.00
2018-12-14T10:47:08.873Z,868.00
2018-12-14T10:48:08.860Z,848.00
2018-12-14T10:49:08.869Z,844.00
2018-12-14T10:50:08.842Z,840.00
2018-12-14T10:51:08.830Z,844.00
2018-12-14T10:52:08.816Z,852.00
2018-12-14T10:53:08.806Z,868.00
2018-12-14T10:54:08.817Z,872.00
2018-12-14T10:55:08.783Z,892.00
2018-12-14T10:56:08.772Z,912.00
2018-12-14T10:57:08.765Z,932.00
2018-12-14T10:58:08.752Z,920.00
2018-12-14T10:59:08.758Z,896.00
2018-12-14T11:00:08.734Z,880.00
2018-12-14T11:01:08.718Z,852.00
2018-12-14T11:02:08.707Z,840.00
2018-12-14T11:03:08.697Z,840.00
2018-12-14T11:04:08.709Z,828.00
2018-12-14T11:05:08.676Z,780.00
2018-12-14T11:06:08.664Z,748.00
2018-12-14T11:07:08.657Z,740.00
2018-12-14T11:08:08.644Z,752.00
2018-12-14T11:09:08.650Z,808.00
2018-12-14T11:10:08.620Z,872.00
2018-12-14T11:11:08.612Z,916.00
2018-12-14T11:12:08.599Z,928.00
2018-12-14T11:13:08.588Z,944.00
2018-12-14T11:14:13.971Z,948.00
2018-12-14T11:15:08.570Z,944.00
2018-12-14T11:16:08.556Z,920.00
2018-12-14T11:17:08.545Z,912.00
2018-12-14T11:18:08.536Z,900.00
2018-12-14T11:19:08.546Z,880.00
2018-12-14T11:20:08.517Z,880.00
2018-12-14T11:21:08.504Z,856.00
2018-12-14T11:22:08.490Z,860.00
2018-12-14T11:23:08.498Z,868.00
2018-12-14T11:24:08.495Z,856.00
2018-12-14T11:25:08.458Z,824.00
2018-12-14T11:26:08.446Z,788.00
2018-12-14T11:27:08.438Z,776.00
2018-12-14T11:28:08.432Z,780.00
2018-12-14T11:29:08.439Z,780.00
2018-12-14T11:30:08.404Z,760.00
2018-12-14T11:31:08.396Z,740.00
2018-12-14T11:32:08.383Z,716.00
2018-12-14T11:33:08.369Z,712.00
2018-12-14T11:34:08.382Z,704.00
2018-12-14T11:35:08.358Z,684.00
2018-12-14T11:36:08.343Z,668.00
2018-12-14T11:37:08.326Z,652.00
2018-12-14T11:38:08.342Z,640.00
2018-12-14T11:39:08.323Z,632.00
2018-12-14T11:40:08.293Z,628.00
2018-12-14T11:41:08.282Z,636.00
2018-12-14T11:42:08.272Z,636.00
2018-12-14T11:43:08.261Z,632.00
2018-12-14T11:44:08.273Z,620.00
2018-12-14T11:45:08.242Z,608.00
2018-12-14T11:46:08.228Z,612.00
2018-12-14T11:47:08.217Z,620.00
2018-12-14T11:48:08.209Z,620.00
2018-12-14T11:49:08.230Z,604.00
2018-12-14T11:50:17.928Z,596.00
2018-12-14T11:51:16.446Z,596.00
2018-12-14T11:52:08.166Z,592.00
2018-12-14T11:53:08.150Z,580.00
2018-12-14T11:54:08.140Z,560.00
2018-12-14T11:55:08.158Z,536.00
2018-12-14T11:56:08.124Z,520.00
2018-12-14T11:57:08.114Z,508.00
2018-12-14T11:58:08.097Z,500.00
2018-12-14T11:59:08.086Z,504.00
2018-12-14T12:00:08.102Z,520.00
2018-12-14T12:01:08.067Z,544.00
2018-12-14T12:02:08.053Z,556.00
2018-12-14T12:03:08.046Z,560.00
2018-12-14T12:04:08.032Z,560.00
2018-12-14T12:05:08.040Z,548.00
2018-12-14T12:06:08.013Z,548.00
2018-12-14T12:07:07.999Z,548.00
2018-12-14T12:08:07.994Z,536.00
2018-12-14T12:09:07.978Z,528.00
2018-12-14T12:10:07.993Z,524.00
2018-12-14T12:11:07.958Z,520.00
2018-12-14T12:12:07.948Z,512.00
2018-12-14T12:13:07.935Z,488.00
2018-12-14T12:14:07.923Z,464.00
2018-12-14T12:15:07.932Z,436.00
2018-12-14T12:16:07.908Z,424.00
2018-12-14T12:17:07.894Z,416.00
2018-12-14T12:18:16.096Z,404.00
2018-12-14T12:19:07.869Z,384.00
2018-12-14T12:20:07.880Z,372.00
2018-12-14T12:21:07.850Z,364.00
2018-12-14T12:22:07.836Z,360.00
2018-12-14T12:23:07.827Z,360.00
2018-12-14T12:24:07.815Z,360.00
2018-12-14T12:25:07.824Z,368.00
2018-12-14T12:26:07.792Z,388.00
2018-12-14T12:27:07.784Z,408.00
2018-12-14T12:28:07.771Z,416.00
2018-12-14T12:29:07.764Z,408.00
2018-12-14T12:30:07.772Z,396.00
2018-12-14T12:31:07.739Z,376.00
2018-12-14T12:32:07.730Z,368.00
2018-12-14T12:33:07.716Z,360.00
2018-12-14T12:34:07.705Z,356.00
2018-12-14T12:35:08.169Z,360.00
2018-12-14T12:36:17.222Z,372.00
2018-12-14T12:37:07.674Z,388.00
2018-12-14T12:38:07.662Z,408.00
2018-12-14T12:39:07.651Z,416.00
2018-12-14T12:40:07.662Z,420.00
2018-12-14T12:41:07.631Z,416.00
2018-12-14T12:42:07.622Z,412.00
2018-12-14T12:43:07.607Z,408.00
2018-12-14T12:44:07.595Z,408.00
2018-12-14T12:45:07.744Z,404.00
2018-12-14T12:46:07.574Z,396.00
2018-12-14T12:47:07.563Z,380.00
2018-12-14T12:48:07.553Z,368.00
2018-12-14T12:49:07.563Z,360.00
2018-12-14T12:50:07.550Z,356.00
2018-12-14T12:51:07.522Z,352.00
2018-12-14T12:52:07.513Z,344.00
2018-12-14T12:53:07.505Z,340.00
2018-12-14T12:54:07.489Z,336.00
2018-12-14T12:55:07.559Z,340.00
2018-12-14T12:56:07.466Z,348.00
2018-12-14T12:57:07.454Z,356.00